Time;durP1;ratioP1;P1;durP2;ratioP2;P2;SDS_P1;SDS_P2;PMS_P1;PMS_P2;Temp;Humidity;BMP_temperature;BMP_pressure;BME280_temperature;BME280_humidity;BME280_pressure;Samples;Min_cycle;Max_cycle;Signal;HPM_P1;HPM_P2
2022/10/05 00:01:39;;;;;;;4.43;4.07;;;;;;;9.25;100.00;99102.00;4150677;28;20213;-84
2022/10/05 00:03:44;;;;;;;4.95;4.55;;;;;;;9.24;100.00;99088.56;4150695;28;20227;-85
2022/10/05 00:05:50;;;;;;;6.00;4.82;;;;;;;9.25;100.00;99087.50;4136482;28;20202;-85
2022/10/05 00:07:53;;;;;;;5.43;5.03;;;;;;;9.20;99.98;99087.34;4141484;28;20570;-86
2022/10/05 00:10:16;;;;;;;5.80;5.40;;;;;;;9.20;100.00;99092.78;4123530;28;20269;-85
2022/10/05 00:12:23;;;;;;;5.53;5.05;;;;;;;9.20;100.00;99084.59;4143666;28;20534;-85
2022/10/05 00:14:58;;;;;;;4.80;4.40;;;;;;;9.16;100.00;99086.13;4122745;28;20226;-85
2022/10/05 00:17:21;;;;;;;5.32;4.93;;;;;;;9.28;100.00;99079.69;4137543;28;20220;-85
2022/10/05 00:19:52;;;;;;;5.95;5.43;;;;;;;9.26;100.00;99076.34;4151728;28;20773;-86
2022/10/05 00:22:15;;;;;;;8.95;6.20;;;;;;;9.32;100.00;99075.44;4149098;28;20209;-85
2022/10/05 00:24:22;;;;;;;6.43;6.00;;;;;;;9.13;100.00;99072.91;4142031;28;20233;-85
2022/10/05 00:26:25;;;;;;;6.85;6.22;;;;;;;9.04;100.00;99066.09;4124932;28;20305;-86
2022/10/05 00:28:29;;;;;;;6.60;5.80;;;;;;;9.13;100.00;99062.00;4128564;28;20249;-86
2022/10/05 00:30:38;;;;;;;5.55;5.13;;;;;;;9.14;100.00;99055.50;4138016;28;20209;-86
2022/10/05 00:32:47;;;;;;;6.07;5.60;;;;;;;9.05;100.00;99045.94;4120896;28;20277;-86
2022/10/05 00:35:00;;;;;;;6.63;6.03;;;;;;;9.01;100.00;99044.75;4154063;28;20641;-86
2022/10/05 00:37:03;;;;;;;8.82;6.53;;;;;;;8.63;100.00;99035.91;4133123;28;20206;-85
2022/10/05 00:39:08;;;;;;;6.65;6.05;;;;;;;8.49;100.00;99028.91;4138036;28;20221;-86
2022/10/05 00:41:28;;;;;;;15.50;6.88;;;;;;;8.52;100.00;99021.09;4120043;28;20265;-86
2022/10/05 00:43:38;;;;;;;6.78;6.07;;;;;;;8.72;100.00;99018.16;4134218;28;20205;-85
2022/10/05 00:45:51;;;;;;;6.43;5.93;;;;;;;8.83;100.00;99022.88;4135975;28;20231;-85
2022/10/05 00:48:17;;;;;;;5.82;5.43;;;;;;;8.89;100.00;99021.97;4126159;28;20300;-86
2022/10/05 00:50:37;;;;;;;11.05;6.43;;;;;;;8.94;100.00;99022.97;4138177;28;20213;-86
2022/10/05 00:52:53;;;;;;;6.00;5.47;;;;;;;8.97;100.00;99021.69;4137331;28;20665;-86
2022/10/05 00:55:12;;;;;;;7.63;5.45;;;;;;;8.98;100.00;99026.06;4134349;28;20233;-85
2022/10/05 00:57:36;;;;;;;6.93;4.63;;;;;;;8.90;100.00;99038.09;4149411;28;20219;-85
2022/10/05 01:00:01;;;;;;;5.65;5.15;;;;;;;8.93;100.00;99043.13;4135253;28;20233;-85
2022/10/05 01:02:15;;;;;;;6.93;6.22;;;;;;;8.94;100.00;99033.06;4129343;28;20213;-85
2022/10/05 01:04:44;;;;;;;13.07;4.30;;;;;;;8.98;100.00;99034.25;4130357;28;20253;-85
2022/10/05 01:06:49;;;;;;;5.35;4.85;;;;;;;8.92;100.00;99032.44;4134334;28;20202;-85
2022/10/05 01:09:07;;;;;;;5.03;4.40;;;;;;;8.79;100.00;99040.75;4137727;28;20206;-86
2022/10/05 01:11:22;;;;;;;6.15;4.80;;;;;;;8.77;100.00;99037.44;4147921;28;20213;-86
2022/10/05 01:13:27;;;;;;;5.28;4.50;;;;;;;8.75;100.00;99043.09;4135139;28;20205;-86
2022/10/05 01:15:48;;;;;;;7.07;4.50;;;;;;;8.74;100.00;99043.34;4134359;28;20229;-86
2022/10/05 01:18:11;;;;;;;5.20;4.75;;;;;;;8.73;100.00;99041.66;4135756;28;20268;-86
2022/10/05 01:20:21;;;;;;;5.32;4.65;;;;;;;8.71;100.00;99041.06;4119910;28;20219;-86
2022/10/05 01:23:05;;;;;;;5.57;5.05;;;;;;;8.74;100.00;99044.16;4123078;28;20220;-86
2022/10/05 01:25:22;;;;;;;6.32;5.70;;;;;;;8.54;100.00;99040.81;4141907;28;20226;-85
2022/10/05 01:27:35;;;;;;;6.75;4.20;;;;;;;8.51;100.00;99040.41;4143124;28;20210;-86
2022/10/05 01:29:45;;;;;;;4.72;4.32;;;;;;;8.55;100.00;99050.66;4139318;28;20206;-84
2022/10/05 01:31:57;;;;;;;6.68;4.57;;;;;;;8.57;100.00;99058.63;4141023;28;20209;-85
2022/10/05 01:34:16;;;;;;;5.00;4.57;;;;;;;8.54;100.00;99053.63;4122757;28;20233;-85
2022/10/05 01:36:37;;;;;;;7.57;4.72;;;;;;;8.53;100.00;99054.66;4136647;28;20296;-85
2022/10/05 01:38:46;;;;;;;4.82;4.45;;;;;;;8.57;100.00;99054.00;4146112;28;20228;-85
2022/10/05 01:41:02;;;;;;;4.55;4.22;;;;;;;8.53;100.00;99057.38;4145515;28;20648;-85
2022/10/05 01:43:42;;;;;;;5.70;5.20;;;;;;;8.57;100.00;99053.16;4146579;28;20871;-85
2022/10/05 01:45:49;;;;;;;7.07;5.20;;;;;;;8.51;100.00;99054.06;4134158;28;20240;-86
2022/10/05 01:48:22;;;;;;;6.80;6.30;;;;;;;8.53;100.00;99057.38;4144360;28;20284;-85
2022/10/05 01:50:23;;;;;;;9.05;5.95;;;;;;;8.50;100.00;99044.22;4131182;28;20213;-86
2022/10/05 01:52:45;;;;;;;6.53;5.93;;;;;;;8.50;100.00;99049.66;4136758;28;20210;-86
2022/10/05 01:55:13;;;;;;;5.82;5.32;;;;;;;8.45;100.00;99044.03;4153538;28;20239;-86
2022/10/05 01:57:30;;;;;;;7.32;6.72;;;;;;;8.45;100.00;99044.03;4139561;28;20256;-86
2022/10/05 02:00:00;;;;;;;6.18;5.57;;;;;;;8.37;100.00;99041.59;4141854;28;20729;-85
2022/10/05 02:02:15;;;;;;;6.53;6.13;;;;;;;8.31;100.00;99043.34;4124801;28;20233;-85
2022/10/05 02:04:22;;;;;;;9.00;6.85;;;;;;;8.30;100.00;99038.09;4140148;28;20312;-85
2022/10/05 02:06:49;;;;;;;6.25;5.65;;;;;;;8.34;100.00;99031.16;4132330;28;20228;-85
2022/10/05 02:09:00;;;;;;;6.30;5.68;;;;;;;8.36;100.00;99029.03;4127634;28;20220;-85
2022/10/05 02:11:06;;;;;;;8.20;7.15;;;;;;;8.33;100.00;99029.44;4131693;28;20216;-86
2022/10/05 02:13:29;;;;;;;7.57;6.93;;;;;;;8.24;100.00;99019.91;4145576;28;20285;-85
2022/10/05 02:15:40;;;;;;;8.48;7.88;;;;;;;8.06;100.00;99017.06;4127068;28;22148;-84
2022/10/05 02:17:47;;;;;;;7.72;6.80;;;;;;;8.12;100.00;99014.31;4127373;28;20202;-86
2022/10/05 02:19:58;;;;;;;7.55;7.03;;;;;;;8.11;100.00;99009.91;4136490;28;20245;-84
2022/10/05 02:22:05;;;;;;;7.93;7.32;;;;;;;8.09;100.00;99012.00;4141310;28;20619;-84
2022/10/05 02:24:10;;;;;;;7.78;7.10;;;;;;;8.16;100.00;99006.53;4125298;28;20241;-85
2022/10/05 02:26:15;;;;;;;9.40;8.13;;;;;;;8.12;100.00;99016.19;4146354;28;20614;-85
2022/10/05 02:28:21;;;;;;;14.65;7.93;;;;;;;8.11;100.00;99014.53;4135348;28;20945;-85
2022/10/05 02:30:23;;;;;;;7.38;6.88;;;;;;;8.23;100.00;99001.88;4146279;28;20198;-85
2022/10/05 02:32:28;;;;;;;7.72;6.18;;;;;;;8.25;100.00;99005.22;4160280;28;20212;-84
2022/10/05 02:34:36;;;;;;;8.27;6.40;;;;;;;8.24;100.00;99011.72;4145387;28;20224;-84
2022/10/05 02:36:37;;;;;;;7.82;7.22;;;;;;;8.29;100.00;98995.53;4127330;28;20285;-85
2022/10/05 02:39:18;;;;;;;10.07;7.03;;;;;;;8.26;100.00;99002.25;4138933;28;20216;-85
2022/10/05 02:41:34;;;;;;;8.45;7.65;;;;;;;8.27;100.00;99003.94;4141896;28;20206;-85
2022/10/05 02:43:42;;;;;;;9.68;8.73;;;;;;;8.29;100.00;98999.06;4139381;28;20205;-85
2022/10/05 02:45:48;;;;;;;9.73;8.90;;;;;;;8.35;100.00;98994.66;4136226;28;20220;-85
2022/10/05 02:47:58;;;;;;;10.82;9.80;;;;;;;8.37;100.00;98992.50;4153873;28;20879;-85
2022/10/05 02:50:35;;;;;;;10.70;9.52;;;;;;;8.40;100.00;98992.06;4154167;28;20192;-85
2022/10/05 02:52:46;;;;;;;10.48;9.07;;;;;;;8.45;100.00;98978.59;4113470;28;20217;-85
2022/10/05 02:55:09;;;;;;;9.95;8.98;;;;;;;8.49;100.00;98968.91;4135297;28;20299;-86
2022/10/05 02:57:27;;;;;;;10.25;9.45;;;;;;;8.53;100.00;98970.09;4147915;28;22008;-85
2022/10/05 02:59:46;;;;;;;14.88;12.27;;;;;;;8.51;100.00;98967.63;4139897;28;20734;-86
2022/10/05 03:01:54;;;;;;;14.18;11.02;;;;;;;8.50;100.00;98970.56;4132011;28;20241;-86
2022/10/05 03:04:25;;;;;;;11.95;10.85;;;;;;;8.52;100.00;98968.44;4150807;28;20227;-85
2022/10/05 03:06:31;;;;;;;14.90;11.15;;;;;;;8.55;100.00;98968.00;4121494;28;20282;-85
2022/10/05 03:08:50;;;;;;;11.65;10.60;;;;;;;8.54;100.00;98969.06;4127526;28;20205;-85
2022/10/05 03:11:14;;;;;;;10.18;9.27;;;;;;;8.57;100.00;98968.59;4142114;28;20232;-84
2022/10/05 03:13:19;;;;;;;9.50;8.60;;;;;;;8.60;100.00;98976.31;4119212;28;20199;-85
2022/10/05 03:15:46;;;;;;;11.18;8.60;;;;;;;8.61;100.00;98978.00;4136030;28;20237;-85
2022/10/05 03:18:08;;;;;;;8.40;7.68;;;;;;;8.54;100.00;98982.72;4136385;28;20206;-85
2022/10/05 03:20:21;;;;;;;9.65;8.13;;;;;;;8.52;100.00;98973.91;4117826;28;20211;-84
2022/10/05 03:22:48;;;;;;;11.20;9.40;;;;;;;8.47;100.00;98976.47;4133483;28;20352;-86
2022/10/05 03:25:16;;;;;;;9.02;8.38;;;;;;;8.40;100.00;98975.69;4121542;28;20226;-85
2022/10/05 03:27:21;;;;;;;10.85;9.05;;;;;;;8.39;100.00;98979.47;4135969;28;20232;-85
2022/10/05 03:29:47;;;;;;;8.95;8.15;;;;;;;8.42;100.00;98979.06;4137944;28;20224;-85
2022/10/05 03:31:59;;;;;;;23.38;9.13;;;;;;;8.46;100.00;98982.97;4130164;28;20209;-84
2022/10/05 03:34:07;;;;;;;9.55;8.85;;;;;;;8.48;100.00;98980.88;4117399;28;20226;-85
2022/10/05 03:36:15;;;;;;;9.35;8.45;;;;;;;8.36;100.00;98978.03;4136618;28;20200;-85
2022/10/05 03:38:22;;;;;;;9.57;8.13;;;;;;;8.42;100.00;98982.59;4135769;28;20268;-85
2022/10/05 03:40:33;;;;;;;9.85;7.65;;;;;;;8.44;100.00;98982.38;4134640;28;20362;-86
2022/10/05 03:42:50;;;;;;;11.70;9.10;;;;;;;8.41;100.00;98986.38;4137267;28;21353;-85
2022/10/05 03:45:09;;;;;;;8.07;7.30;;;;;;;8.45;100.00;98995.78;4151902;28;20224;-86
2022/10/05 03:47:39;;;;;;;10.30;9.50;;;;;;;8.66;100.00;98991.78;4135351;28;20206;-86
2022/10/05 03:50:18;;;;;;;9.43;8.63;;;;;;;8.46;100.00;98996.63;4135971;28;20196;-85
2022/10/05 03:52:25;;;;;;;11.73;9.52;;;;;;;8.50;100.00;98992.38;4134859;28;20212;-86
2022/10/05 03:54:37;;;;;;;10.80;9.90;;;;;;;8.55;100.00;98995.28;4120416;28;20734;-85
2022/10/05 03:57:05;;;;;;;12.38;11.27;;;;;;;8.57;100.00;98987.69;4121492;28;20415;-85
2022/10/05 03:59:16;;;;;;;19.40;10.27;;;;;;;8.48;100.00;98987.16;4127635;28;20201;-85
2022/10/05 04:01:24;;;;;;;10.52;9.73;;;;;;;8.56;100.00;98991.50;4123155;28;20212;-86
2022/10/05 04:03:34;;;;;;;15.15;10.48;;;;;;;8.56;100.00;98992.31;4122341;28;20301;-86
2022/10/05 04:06:04;;;;;;;11.10;10.10;;;;;;;8.55;100.00;98990.63;4149892;28;20204;-86
2022/10/05 04:08:30;;;;;;;10.52;9.73;;;;;;;8.58;100.00;98989.34;4134898;28;20309;-84
2022/10/05 04:10:48;;;;;;;10.43;9.52;;;;;;;8.68;100.00;98992.41;4135423;28;20289;-84
2022/10/05 04:13:06;;;;;;;11.50;10.60;;;;;;;8.62;100.00;98988.69;4134346;28;20207;-84
2022/10/05 04:15:25;;;;;;;10.68;9.77;;;;;;;8.76;100.00;98992.13;4117235;28;20329;-84
2022/10/05 04:17:34;;;;;;;9.40;8.77;;;;;;;8.72;100.00;98990.88;4122608;28;20214;-85
2022/10/05 04:19:51;;;;;;;9.20;8.50;;;;;;;8.77;100.00;98985.59;4138210;28;20229;-85
2022/10/05 04:22:16;;;;;;;9.40;8.70;;;;;;;8.66;100.00;98986.34;4134414;28;20210;-84
2022/10/05 04:24:24;;;;;;;9.45;8.70;;;;;;;8.70;100.00;98996.56;4136945;28;20702;-85
2022/10/05 04:26:36;;;;;;;8.35;7.75;;;;;;;8.70;100.00;98990.28;4153054;28;20209;-85
2022/10/05 04:28:53;;;;;;;8.52;7.93;;;;;;;8.69;100.00;98994.91;4138035;28;20297;-84
2022/10/05 04:30:54;;;;;;;8.90;8.20;;;;;;;8.71;100.00;98984.63;4134523;28;20201;-85
2022/10/05 04:32:57;;;;;;;9.18;8.38;;;;;;;8.80;100.00;98993.31;4128109;28;20205;-85
2022/10/05 04:35:17;;;;;;;8.38;7.78;;;;;;;8.81;100.00;98984.09;4155620;28;20227;-84
2022/10/05 04:37:44;;;;;;;8.82;8.23;;;;;;;8.80;100.00;98990.56;4134836;28;20884;-85
2022/10/05 04:39:59;;;;;;;8.52;7.93;;;;;;;8.84;100.00;98991.81;4135579;28;21638;-84
2022/10/05 04:42:30;;;;;;;8.60;7.90;;;;;;;8.87;100.00;98989.44;4136350;28;20209;-84
2022/10/05 04:44:56;;;;;;;9.70;8.90;;;;;;;8.89;100.00;98981.88;4118724;28;20579;-85
2022/10/05 04:47:08;;;;;;;10.30;9.57;;;;;;;8.98;100.00;98987.84;4120694;28;20351;-84
2022/10/05 04:49:14;;;;;;;9.55;8.75;;;;;;;9.01;100.00;98985.50;4137205;28;20212;-87
2022/10/05 04:51:24;;;;;;;10.07;9.02;;;;;;;9.06;100.00;98982.06;4132080;28;20217;-85
2022/10/05 04:53:56;;;;;;;11.48;9.43;;;;;;;9.15;100.00;98989.72;4134449;28;20259;-84
2022/10/05 04:56:08;;;;;;;11.57;8.88;;;;;;;9.06;100.00;98988.38;4118759;28;20241;-83
2022/10/05 04:58:18;;;;;;;8.70;8.10;;;;;;;9.19;100.00;98992.84;4133713;28;22356;-83
2022/10/05 05:00:22;;;;;;;11.10;10.23;;;;;;;9.09;100.00;98989.84;4129311;28;20229;-84
2022/10/05 05:02:51;;;;;;;12.38;11.00;;;;;;;9.12;100.00;98994.81;4149474;28;20243;-84
2022/10/05 05:05:18;;;;;;;11.30;9.27;;;;;;;9.18;100.00;98996.63;4135130;28;20388;-85
2022/10/05 05:07:25;;;;;;;10.75;9.95;;;;;;;9.19;100.00;98988.22;4134535;28;20225;-83
2022/10/05 05:09:46;;;;;;;9.73;9.02;;;;;;;9.21;100.00;98985.28;4149628;28;20256;-84
2022/10/05 05:12:02;;;;;;;8.10;7.50;;;;;;;9.19;100.00;98990.09;4135537;28;20205;-84
2022/10/05 05:14:28;;;;;;;8.25;7.57;;;;;;;9.22;100.00;98987.75;4156762;28;20232;-84
2022/10/05 05:16:37;;;;;;;7.40;6.78;;;;;;;9.26;100.00;98990.84;4140920;28;20210;-84
2022/10/05 05:19:12;;;;;;;11.10;9.25;;;;;;;9.26;100.00;98985.38;4125148;28;20328;-84
2022/10/05 05:21:36;;;;;;;8.55;7.85;;;;;;;9.29;100.00;98991.22;4151386;28;20242;-83
2022/10/05 05:23:56;;;;;;;9.90;8.95;;;;;;;9.36;100.00;98999.34;4132191;28;20221;-84
2022/10/05 05:26:27;;;;;;;8.43;7.60;;;;;;;9.34;100.00;98994.09;4130334;28;20233;-84
2022/10/05 05:28:50;;;;;;;9.15;8.45;;;;;;;9.33;100.00;99008.81;4153427;28;20212;-84
2022/10/05 05:31:02;;;;;;;8.40;7.63;;;;;;;9.32;100.00;99004.44;4125639;28;20209;-84
2022/10/05 05:33:12;;;;;;;8.73;7.93;;;;;;;9.37;100.00;99001.00;4118628;28;20489;-83
2022/10/05 05:35:19;;;;;;;13.15;8.90;;;;;;;9.50;100.00;99003.56;4137070;28;20221;-84
2022/10/05 05:37:24;;;;;;;8.52;7.90;;;;;;;9.42;100.00;99003.88;4125281;28;20218;-84
2022/10/05 05:39:31;;;;;;;11.15;9.48;;;;;;;9.46;100.00;99016.00;4138814;28;20301;-83
2022/10/05 05:42:02;;;;;;;8.80;8.20;;;;;;;9.39;100.00;99015.25;4139887;28;20213;-85
2022/10/05 05:44:27;;;;;;;8.77;7.93;;;;;;;9.40;100.00;99016.91;4140381;28;20228;-83
2022/10/05 05:46:38;;;;;;;9.80;8.90;;;;;;;9.46;100.00;99018.72;4139066;28;20213;-84
2022/10/05 05:49:04;;;;;;;29.17;10.18;;;;;;;9.55;100.00;99009.19;4137697;28;20264;-84
2022/10/05 05:51:09;;;;;;;11.80;10.80;;;;;;;9.49;100.00;99012.81;4136792;28;20220;-85
2022/10/05 05:53:28;;;;;;;10.85;9.65;;;;;;;9.49;100.00;99015.56;4133734;28;20206;-83
2022/10/05 05:55:35;;;;;;;9.50;8.23;;;;;;;9.52;100.00;99015.09;4124084;28;20281;-86
2022/10/05 05:57:40;;;;;;;9.65;8.68;;;;;;;9.52;100.00;99015.09;4123513;28;20218;-84
2022/10/05 05:59:48;;;;;;;8.18;7.57;;;;;;;9.49;100.00;99016.38;4122752;28;20206;-86
2022/10/05 06:02:01;;;;;;;17.63;11.32;;;;;;;9.52;100.00;99020.53;4133707;28;20210;-86
2022/10/05 06:04:11;;;;;;;8.18;7.10;;;;;;;9.52;100.00;99017.81;4118456;28;20242;-85
2022/10/05 06:06:15;;;;;;;9.13;8.32;;;;;;;9.55;100.00;99022.84;4127923;28;20202;-86
2022/10/05 06:08:38;;;;;;;7.97;7.20;;;;;;;9.56;100.00;99021.75;4142173;28;20228;-85
2022/10/05 06:10:46;;;;;;;10.82;9.52;;;;;;;9.56;100.00;99021.75;4121959;28;20218;-84
2022/10/05 06:12:49;;;;;;;9.45;8.50;;;;;;;9.57;100.00;99021.53;4157054;28;20236;-85
2022/10/05 06:15:12;;;;;;;11.20;9.90;;;;;;;9.56;100.00;99025.31;4160526;28;20236;-84
2022/10/05 06:17:20;;;;;;;12.73;11.52;;;;;;;9.67;100.00;99021.00;4129563;28;20210;-85
2022/10/05 06:19:23;;;;;;;11.23;10.35;;;;;;;9.66;100.00;99022.03;4167330;28;20212;-86
2022/10/05 06:21:34;;;;;;;10.88;10.02;;;;;;;9.65;100.00;99020.38;4150675;28;20229;-85
2022/10/05 06:23:51;;;;;;;12.10;9.95;;;;;;;9.69;100.00;99027.03;4149551;28;20216;-85
2022/10/05 06:25:57;;;;;;;9.43;8.63;;;;;;;9.71;100.00;99024.91;4135097;28;20214;-85
2022/10/05 06:28:03;;;;;;;12.35;9.68;;;;;;;9.75;100.00;99026.94;4133570;28;20218;-85
2022/10/05 06:30:13;;;;;;;10.85;9.27;;;;;;;9.79;100.00;99032.78;4138830;28;20572;-83
2022/10/05 06:32:48;;;;;;;10.25;9.43;;;;;;;10.03;100.00;99026.31;4129855;28;20247;-86
2022/10/05 06:34:53;;;;;;;14.52;13.10;;;;;;;10.10;100.00;99029.81;4142644;28;20298;-86
2022/10/05 06:36:59;;;;;;;12.10;11.10;;;;;;;10.18;100.00;99027.56;4141354;28;20614;-86
2022/10/05 06:39:45;;;;;;;13.02;11.93;;;;;;;10.32;100.00;99025.44;4127012;28;20202;-85
2022/10/05 06:41:46;;;;;;;15.55;14.15;;;;;;;10.34;100.00;99029.63;4143730;28;20229;-83
2022/10/05 06:43:53;;;;;;;14.07;12.68;;;;;;;10.41;100.00;99029.53;4136186;28;20236;-84
2022/10/05 06:46:03;;;;;;;17.17;13.02;;;;;;;10.39;100.00;99028.91;4145806;28;20213;-84
2022/10/05 06:48:19;;;;;;;14.35;12.85;;;;;;;10.35;100.00;99028.53;4140469;28;20735;-84
2022/10/05 06:50:31;;;;;;;14.98;13.50;;;;;;;10.44;100.00;99029.03;4125248;28;20671;-83
2022/10/05 06:52:41;;;;;;;18.52;13.07;;;;;;;10.53;100.00;99035.81;4129475;28;20722;-83
2022/10/05 06:55:03;;;;;;;13.85;12.23;;;;;;;10.55;100.00;99030.94;4139800;28;20320;-84
2022/10/05 06:57:36;;;;;;;15.27;13.43;;;;;;;10.63;100.00;99036.06;4145409;28;20217;-83
2022/10/05 06:59:42;;;;;;;14.75;13.15;;;;;;;10.72;100.00;99040.09;4140958;28;20209;-85
2022/10/05 07:02:13;;;;;;;16.48;13.13;;;;;;;10.75;100.00;99034.16;4141609;28;20288;-86
2022/10/05 07:04:29;;;;;;;14.10;12.75;;;;;;;10.87;100.00;99037.75;4126129;28;20227;-85
2022/10/05 07:06:40;;;;;;;13.13;12.05;;;;;;;10.91;100.00;99045.22;4123662;28;20210;-85
2022/10/05 07:08:54;;;;;;;13.05;12.02;;;;;;;11.02;100.00;99039.75;4127980;28;20213;-84
2022/10/05 07:11:24;;;;;;;14.90;13.55;;;;;;;11.18;100.00;99041.72;4147017;28;20204;-85
2022/10/05 07:13:28;;;;;;;13.65;12.25;;;;;;;11.27;100.00;99033.97;4125042;28;20210;-85
2022/10/05 07:15:44;;;;;;;14.00;12.88;;;;;;;11.44;100.00;99041.19;4129130;28;20898;-85
2022/10/05 07:18:22;;;;;;;14.15;12.95;;;;;;;11.49;100.00;99043.19;4133407;28;20236;-85
2022/10/05 07:20:29;;;;;;;13.13;11.80;;;;;;;11.57;100.00;99040.09;4131463;28;20217;-85
2022/10/05 07:23:02;;;;;;;10.82;10.02;;;;;;;11.58;100.00;99042.59;4148465;28;20664;-85
2022/10/05 07:25:09;;;;;;;12.35;11.23;;;;;;;11.60;100.00;99029.50;4130247;28;20222;-85
2022/10/05 07:27:18;;;;;;;12.73;11.73;;;;;;;11.71;100.00;99039.56;4135990;28;20221;-85
2022/10/05 07:29:28;;;;;;;11.50;10.63;;;;;;;11.82;100.00;99044.19;4138864;28;20204;-83
2022/10/05 07:31:30;;;;;;;10.70;10.00;;;;;;;12.01;100.00;99050.28;4136409;28;20197;-85
2022/10/05 07:33:49;;;;;;;14.77;13.45;;;;;;;11.88;100.00;99037.72;4144674;28;20363;-85
2022/10/05 07:38:49;;;;;;;14.80;13.80;;;;;;;11.92;100.00;99052.59;4141811;28;20677;-85
2022/10/05 07:41:01;;;;;;;17.65;16.42;;;;;;;11.92;100.00;99055.34;4134669;28;20318;-84
2022/10/05 07:43:33;;;;;;;15.40;14.20;;;;;;;11.84;100.00;99055.72;4136396;28;20236;-84
2022/10/05 07:46:06;;;;;;;19.02;17.52;;;;;;;11.96;100.00;99051.03;4138105;28;20272;-85
2022/10/05 07:48:38;;;;;;;17.15;15.60;;;;;;;11.94;100.00;99057.84;4133349;28;20276;-85
2022/10/05 07:51:08;;;;;;;16.00;14.80;;;;;;;11.88;100.00;99058.81;4130137;28;20227;-85
2022/10/05 07:53:19;;;;;;;31.73;29.17;;;;;;;12.01;100.00;99064.84;4138808;28;20202;-84
2022/10/05 07:55:40;;;;;;;25.40;23.40;;;;;;;12.02;100.00;99055.53;4152861;28;20686;-86
2022/10/05 07:58:19;;;;;;;16.52;15.00;;;;;;;12.04;100.00;99056.13;4135401;28;20206;-86
2022/10/05 08:00:56;;;;;;;11.48;10.68;;;;;;;11.95;100.00;99059.50;4134888;28;20288;-85
2022/10/05 08:03:51;;;;;;;8.43;7.82;;;;;;;12.10;100.00;99057.88;4134220;28;20741;-86
2022/10/05 08:06:30;;;;;;;7.72;7.18;;;;;;;12.11;100.00;99055.97;4140588;28;20208;-85
2022/10/05 08:09:20;;;;;;;7.70;7.18;;;;;;;12.09;100.00;99066.34;4137651;28;20209;-84
2022/10/05 08:11:47;;;;;;;8.07;7.22;;;;;;;12.04;100.00;99058.88;4136859;28;20429;-84
2022/10/05 08:14:37;;;;;;;;;;;;;;;;;;;;;
2022/10/05 08:20:21;;;;;;;7.75;7.05;;;;;;;12.07;100.00;99054.81;4092964;28;20221;-84
2022/10/05 08:22:49;;;;;;;8.13;6.80;;;;;;;12.12;100.00;99049.41;4101030;28;20632;-83
2022/10/05 08:25:01;;;;;;;7.32;6.82;;;;;;;12.25;100.00;99044.44;4074538;29;20246;-85
2022/10/05 08:27:21;;;;;;;7.00;6.50;;;;;;;12.32;100.00;99047.88;4083745;29;20249;-85
2022/10/05 08:30:03;;;;;;;7.75;7.25;;;;;;;12.38;100.00;99049.59;4082634;28;20200;-86
2022/10/05 08:32:30;;;;;;;7.82;7.32;;;;;;;12.45;100.00;99043.97;4075915;29;20950;-83
2022/10/05 08:35:14;;;;;;;7.10;6.68;;;;;;;12.57;100.00;99047.47;4088492;28;20234;-85
2022/10/05 08:37:55;;;;;;;6.60;6.03;;;;;;;12.64;100.00;99042.63;4072595;28;20208;-83
2022/10/05 08:40:34;;;;;;;5.90;5.50;;;;;;;12.59;100.00;99043.38;4081801;28;20314;-83
2022/10/05 08:43:28;;;;;;;7.10;6.60;;;;;;;12.76;100.00;99043.38;4069182;28;20227;-84
2022/10/05 08:46:13;;;;;;;5.57;5.18;;;;;;;12.96;100.00;99041.78;4058627;28;20208;-85
2022/10/05 08:48:47;;;;;;;5.65;5.25;;;;;;;12.98;100.00;99047.84;4115188;28;20213;-85
2022/10/05 08:51:14;;;;;;;7.32;6.47;;;;;;;12.84;100.00;99046.50;4116086;28;20205;-84
2022/10/05 08:53:25;;;;;;;7.00;6.50;;;;;;;12.88;100.00;99044.94;4116317;28;20206;-84
2022/10/05 08:55:33;;;;;;;5.93;4.88;;;;;;;12.82;100.00;99045.94;4119094;28;20221;-84
2022/10/05 08:58:41;;;;;;;5.75;5.35;;;;;;;13.00;100.00;99044.84;4132075;28;20240;-85
2022/10/05 09:01:04;;;;;;;4.70;4.40;;;;;;;13.02;100.00;99050.91;4133171;28;20209;-84
2022/10/05 09:03:33;;;;;;;5.32;5.03;;;;;;;13.10;100.00;99048.56;4131484;28;20209;-85
2022/10/05 09:05:59;;;;;;;4.35;4.05;;;;;;;13.33;100.00;99048.38;4144470;28;20637;-85
2022/10/05 09:08:37;;;;;;;4.22;3.83;;;;;;;13.39;100.00;99041.84;4136493;28;20247;-86
2022/10/05 09:11:39;;;;;;;5.07;4.78;;;;;;;13.47;100.00;99043.31;4086632;28;20604;-86
2022/10/05 09:17:56;;;;;;;3.75;3.55;;;;;;;14.07;100.00;99055.00;4082574;28;20208;-85
2022/10/05 09:21:13;;;;;;;3.40;3.15;;;;;;;14.07;100.00;99055.84;4014780;29;20595;-85
2022/10/05 09:23:47;;;;;;;3.97;3.67;;;;;;;14.19;100.00;99053.81;4009023;29;20312;-85
2022/10/05 09:26:52;;;;;;;4.22;3.92;;;;;;;14.27;100.00;99056.09;3963002;29;20351;-85
2022/10/05 09:29:45;;;;;;;3.67;3.47;;;;;;;14.14;100.00;99050.97;3960384;29;20247;-85
2022/10/05 09:35:15;;;;;;;3.90;3.60;;;;;;;14.13;100.00;99051.22;4096995;22;20239;-49
2022/10/05 09:37:27;;;;;;;3.97;3.58;;;;;;;14.19;100.00;99042.81;4150520;28;20297;-51
2022/10/05 09:39:38;;;;;;;3.60;3.35;;;;;;;14.29;100.00;99045.66;4152772;28;20648;-49
2022/10/05 09:41:55;;;;;;;3.83;3.53;;;;;;;14.44;100.00;99043.03;4164005;28;20220;-51
2022/10/05 09:44:21;;;;;;;7.85;3.10;;;;;;;14.50;100.00;99041.97;4167383;28;20306;-52
2022/10/05 09:46:43;;;;;;;4.07;3.78;;;;;;;14.75;100.00;99036.69;4169439;28;20295;-50
2022/10/05 09:48:56;;;;;;;4.57;3.35;;;;;;;14.91;100.00;99043.94;4170249;28;20250;-49
2022/10/05 09:51:39;;;;;;;3.75;3.53;;;;;;;14.49;100.00;99043.06;4171569;28;20207;-49
2022/10/05 09:54:05;;;;;;;6.75;3.95;;;;;;;14.69;100.00;99037.75;4140816;28;20501;-50
2022/10/05 09:56:19;;;;;;;3.67;3.47;;;;;;;14.51;100.00;99040.88;4139208;28;20296;-50
2022/10/05 09:58:33;;;;;;;4.10;3.80;;;;;;;14.62;100.00;99048.16;4135611;28;20271;-52
2022/10/05 10:00:47;;;;;;;4.10;3.80;;;;;;;14.80;100.00;99036.72;4134743;28;20345;-52
2022/10/05 10:03:51;;;;;;;4.43;3.92;;;;;;;14.96;100.00;99037.66;4137561;28;20221;-51
2022/10/05 10:05:56;;;;;;;5.25;4.85;;;;;;;15.19;100.00;99035.34;4142131;28;20973;-49
2022/10/05 10:08:12;;;;;;;4.65;4.30;;;;;;;15.05;100.00;99030.56;4155867;28;20205;-50
2022/10/05 10:10:30;;;;;;;6.43;5.85;;;;;;;14.95;100.00;99031.31;4139668;28;20202;-51
2022/10/05 10:13:09;;;;;;;5.82;5.43;;;;;;;15.28;100.00;99030.97;4139729;28;20295;-50
2022/10/05 10:15:30;;;;;;;5.90;5.50;;;;;;;15.53;100.00;99028.38;4139767;28;20213;-50
2022/10/05 10:17:56;;;;;;;5.47;5.05;;;;;;;15.36;100.00;99027.72;4136617;28;20210;-49
2022/10/05 10:20:03;;;;;;;4.75;4.35;;;;;;;15.97;100.00;99028.81;4136495;28;20198;-50
2022/10/05 10:22:24;;;;;;;6.43;5.03;;;;;;;16.32;98.68;99021.41;4138156;28;20225;-52
2022/10/05 10:25:03;;;;;;;4.20;3.90;;;;;;;16.54;97.88;99024.78;4150053;28;20228;-50
2022/10/05 10:27:34;;;;;;;7.70;3.83;;;;;;;16.67;96.21;99018.69;4137777;28;20304;-51
2022/10/05 10:30:02;;;;;;;3.83;3.53;;;;;;;16.92;95.57;99016.72;4135467;28;20655;-50
2022/10/05 10:32:45;;;;;;;3.90;3.60;;;;;;;17.57;94.61;99007.44;4134930;28;20261;-53
2022/10/05 10:35:12;;;;;;;3.65;3.35;;;;;;;16.98;93.37;99014.81;4125370;28;20220;-51
2022/10/05 10:37:49;;;;;;;4.63;4.20;;;;;;;17.37;91.99;99010.28;4136314;28;20757;-51
2022/10/05 10:40:33;;;;;;;3.38;3.08;;;;;;;18.08;92.19;99003.31;4153710;28;20204;-51
2022/10/05 10:42:41;;;;;;;3.33;2.58;;;;;;;18.76;87.67;99005.03;4111064;28;20233;-53
2022/10/05 10:45:01;;;;;;;3.95;3.47;;;;;;;18.30;87.09;99006.47;4139351;28;20209;-52
2022/10/05 10:47:22;;;;;;;3.65;3.35;;;;;;;18.87;86.36;99001.91;4152237;28;20701;-52
2022/10/05 10:49:31;;;;;;;3.15;2.92;;;;;;;19.13;84.23;99010.78;4169445;28;20219;-51
2022/10/05 10:52:23;;;;;;;2.63;2.42;;;;;;;19.39;84.89;99003.88;4121445;28;20241;-51
2022/10/05 10:54:55;;;;;;;4.75;2.72;;;;;;;19.68;84.30;99010.19;4073276;28;20247;-51
2022/10/05 10:57:11;;;;;;;2.92;2.67;;;;;;;19.39;82.16;99001.09;4133694;28;20210;-51
2022/10/05 10:59:40;;;;;;;4.53;3.00;;;;;;;19.02;83.84;99009.22;4120778;28;20209;-49
2022/10/05 11:02:04;;;;;;;6.85;2.47;;;;;;;19.47;84.46;98997.66;4135118;28;20259;-49
2022/10/05 11:04:30;;;;;;;2.38;2.17;;;;;;;20.13;82.75;99004.06;4136015;28;20751;-49